createdAt,value
2022-08-08T00:00:55.847Z,94710.06
2022-08-08T00:02:50.066Z,94711.66
2022-08-08T00:05:43.506Z,94714.75
2022-08-08T00:08:34.144Z,94723.94
2022-08-08T00:11:14.805Z,94725.34
2022-08-08T00:14:17.272Z,94725.84
2022-08-08T00:16:57.011Z,94713.31
2022-08-08T00:19:30.795Z,94712.56
2022-08-08T00:22:04.184Z,94716.59
2022-08-08T00:24:37.325Z,94718.63
2022-08-08T00:27:10.700Z,94710.00
2022-08-08T00:29:52.215Z,94718.78
2022-08-08T00:32:35.276Z,94728.88
2022-08-08T00:35:21.688Z,94723.78
2022-08-08T00:38:07.360Z,94727.19
2022-08-08T00:41:54.762Z,94721.16
2022-08-08T00:44:47.373Z,94730.56
2022-08-08T00:48:01.966Z,94722.56
2022-08-08T00:51:15.265Z,94728.44
2022-08-08T00:54:13.617Z,94719.31
2022-08-08T00:57:19.630Z,94728.13
2022-08-08T01:00:07.847Z,94726.59
2022-08-08T01:03:58.165Z,94723.97
2022-08-08T01:06:08.080Z,94715.16
2022-08-08T01:09:36.818Z,94711.44
2022-08-08T01:12:29.871Z,94712.53
2022-08-08T01:15:43.923Z,94708.81
2022-08-08T01:18:16.174Z,94708.34
2022-08-08T01:22:01.685Z,94707.72
2022-08-08T01:24:34.065Z,94711.75
2022-08-08T01:27:44.496Z,94712.22
2022-08-08T01:30:45.982Z,94715.59
2022-08-08T01:33:43.286Z,94717.59
2022-08-08T01:36:38.938Z,94710.03
2022-08-08T01:39:23.174Z,94712.06
2022-08-08T01:42:08.366Z,94706.03
2022-08-08T01:44:53.470Z,94713.59
2022-08-08T01:48:13.827Z,94714.38
2022-08-08T01:50:53.995Z,94713.56
2022-08-08T01:55:16.630Z,94711.72
2022-08-08T01:56:34.154Z,94712.59
2022-08-08T01:59:11.711Z,94711.84
2022-08-08T02:02:09.275Z,94716.47
2022-08-08T02:05:06.208Z,94723.88
2022-08-08T02:08:10.663Z,94723.09
2022-08-08T02:10:53.576Z,94728.00
2022-08-08T02:13:52.659Z,94721.50
2022-08-08T02:16:57.666Z,94720.25
2022-08-08T02:20:07.118Z,94715.75
2022-08-08T02:23:03.718Z,94712.19
2022-08-08T02:25:46.984Z,94719.91
2022-08-08T02:28:37.962Z,94724.97
2022-08-08T02:31:59.654Z,94727.78
2022-08-08T02:34:09.858Z,94716.97
2022-08-08T02:37:51.965Z,94705.41
2022-08-08T02:40:25.963Z,94702.78
2022-08-08T02:44:37.907Z,94699.66
2022-08-08T02:46:44.931Z,94704.16
2022-08-08T02:49:59.844Z,94700.75
2022-08-08T02:52:51.728Z,94702.44
2022-08-08T02:55:21.926Z,94700.72
2022-08-08T02:58:15.111Z,94705.78
2022-08-08T03:00:50.689Z,94709.47
2022-08-08T03:05:05.355Z,94708.66
2022-08-08T03:06:51.597Z,94722.69
2022-08-08T03:09:54.016Z,94712.78
2022-08-08T03:13:02.273Z,94721.13
2022-08-08T03:16:04.036Z,94709.25
2022-08-08T03:19:24.532Z,94721.22
2022-08-08T03:21:54.723Z,94720.28
2022-08-08T03:24:28.861Z,94722.50
2022-08-08T03:27:09.347Z,94720.19
2022-08-08T03:29:54.763Z,94714.78
2022-08-08T03:32:53.257Z,94725.75
2022-08-08T03:35:30.147Z,94729.25
2022-08-08T03:38:56.323Z,94728.34
2022-08-08T03:40:54.744Z,94731.13
2022-08-08T03:43:25.207Z,94736.06
2022-08-08T03:46:09.042Z,94736.06
2022-08-08T03:49:30.873Z,94733.75
2022-08-08T03:51:50.768Z,94733.75
2022-08-08T03:54:41.207Z,94741.13
2022-08-08T03:58:09.585Z,94737.00
2022-08-08T04:00:02.521Z,94745.59
2022-08-08T04:02:47.524Z,94748.97
2022-08-08T04:05:22.771Z,94750.19
2022-08-08T04:07:57.813Z,94753.09
2022-08-08T04:10:31.987Z,94751.56
2022-08-08T04:13:08.295Z,94758.94
2022-08-08T04:15:55.000Z,94754.34
2022-08-08T04:18:35.944Z,94753.47
2022-08-08T04:21:10.090Z,94754.09
2022-08-08T04:24:05.184Z,94765.25
2022-08-08T04:26:26.568Z,94767.72
2022-08-08T04:29:02.576Z,94765.91
2022-08-08T04:31:59.473Z,94763.91
2022-08-08T04:34:17.566Z,94767.19
2022-08-08T04:36:45.330Z,94780.94
2022-08-08T04:39:47.755Z,94782.09
2022-08-08T04:42:00.121Z,94785.09
2022-08-08T04:44:28.460Z,94782.16
2022-08-08T04:47:00.880Z,94774.78
2022-08-08T04:49:28.831Z,94782.69
2022-08-08T04:52:14.459Z,94786.75
2022-08-08T04:54:42.250Z,94781.78
2022-08-08T04:57:11.159Z,94781.00
2022-08-08T04:59:41.990Z,94788.75
2022-08-08T05:02:13.792Z,94788.91
2022-08-08T05:04:44.598Z,94790.13
2022-08-08T05:07:12.003Z,94796.78
2022-08-08T05:09:42.405Z,94788.13
2022-08-08T05:12:09.473Z,94785.97
2022-08-08T05:14:47.008Z,94779.50
2022-08-08T05:17:15.767Z,94788.44
2022-08-08T05:20:10.985Z,94786.13
2022-08-08T05:22:38.322Z,94783.34
2022-08-08T05:25:06.297Z,94786.94
2022-08-08T05:27:41.064Z,94786.59
2022-08-08T05:30:10.979Z,94788.94
2022-08-08T05:32:44.261Z,94795.09
2022-08-08T05:35:14.726Z,94792.97
2022-08-08T05:37:53.224Z,94797.88
2022-08-08T05:40:28.547Z,94803.91
2022-08-08T05:43:38.642Z,94804.97
2022-08-08T05:46:03.406Z,94799.09
2022-08-08T05:48:34.715Z,94804.16
2022-08-08T05:51:15.226Z,94801.63
2022-08-08T05:54:25.285Z,94802.53
2022-08-08T05:56:42.300Z,94805.75
2022-08-08T05:59:59.590Z,94790.53
2022-08-08T06:02:40.914Z,94812.25
2022-08-08T06:05:34.287Z,94808.94
2022-08-08T06:08:02.950Z,94811.00
2022-08-08T06:10:39.446Z,94814.59
2022-08-08T06:13:09.334Z,94814.84
2022-08-08T06:15:50.621Z,94820.94
2022-08-08T06:18:30.263Z,94820.94
2022-08-08T06:21:03.798Z,94825.75
2022-08-08T06:23:53.421Z,94822.38
2022-08-08T06:26:43.044Z,94817.88
2022-08-08T06:29:26.657Z,94825.19
2022-08-08T06:32:10.056Z,94828.63
2022-08-08T06:34:39.807Z,94825.91
2022-08-08T06:37:25.160Z,94829.88
2022-08-08T06:39:57.590Z,94841.00
2022-08-08T06:42:33.730Z,94847.50
2022-08-08T06:45:07.839Z,94839.34
2022-08-08T06:47:52.668Z,94838.69
2022-08-08T06:50:34.029Z,94844.97
2022-08-08T06:53:20.256Z,94840.66
2022-08-08T06:56:02.055Z,94853.00
2022-08-08T06:58:33.254Z,94852.47
2022-08-08T07:01:11.733Z,94851.78
2022-08-08T07:04:37.412Z,94851.38
2022-08-08T07:06:43.391Z,94849.59
2022-08-08T07:09:18.010Z,94855.00
2022-08-08T07:11:51.712Z,94855.66
2022-08-08T07:14:29.758Z,94856.97
2022-08-08T07:17:09.227Z,94859.13
2022-08-08T07:20:02.960Z,94854.91
2022-08-08T07:22:40.891Z,94857.44
2022-08-08T07:25:10.292Z,94852.78
2022-08-08T07:28:00.847Z,94851.66
2022-08-08T07:30:31.623Z,94859.47
2022-08-08T07:33:01.114Z,94865.63
2022-08-08T07:35:31.094Z,94870.38
2022-08-08T07:38:10.615Z,94868.00
2022-08-08T07:40:55.635Z,94874.59
2022-08-08T07:43:37.162Z,94880.88
2022-08-08T07:46:23.716Z,94878.97
2022-08-08T07:48:57.233Z,94877.09
2022-08-08T07:51:44.797Z,94884.91
2022-08-08T07:54:26.665Z,94887.31
2022-08-08T07:57:19.919Z,94879.72
2022-08-08T08:00:02.367Z,94891.47
2022-08-08T08:02:38.706Z,94892.00
2022-08-08T08:05:33.489Z,94890.53
2022-08-08T08:08:10.278Z,94892.19
2022-08-08T08:10:38.513Z,94891.50
2022-08-08T08:13:25.768Z,94876.88
2022-08-08T08:16:17.127Z,94900.41
2022-08-08T08:18:56.059Z,94902.09
2022-08-08T08:21:44.140Z,94894.28
2022-08-08T08:24:30.714Z,94896.34
2022-08-08T08:27:02.679Z,94896.41
2022-08-08T08:29:30.777Z,94895.22
2022-08-08T08:31:59.211Z,94891.19
2022-08-08T08:34:32.601Z,94899.75
2022-08-08T08:37:03.389Z,94895.13
2022-08-08T08:39:59.994Z,94897.25
2022-08-08T08:42:31.812Z,94894.59
2022-08-08T08:45:21.736Z,94896.34
2022-08-08T08:47:58.624Z,94897.19
2022-08-08T08:50:34.689Z,94895.72
2022-08-08T08:53:54.227Z,94899.44
2022-08-08T08:56:04.267Z,94895.44
2022-08-08T08:58:41.391Z,94896.59
2022-08-08T09:01:13.589Z,94900.16
2022-08-08T09:03:46.581Z,94902.03
2022-08-08T09:06:28.619Z,94903.00
2022-08-08T09:09:25.946Z,94904.78
2022-08-08T09:12:14.938Z,94907.56
2022-08-08T09:14:44.929Z,94902.72
2022-08-08T09:17:18.781Z,94907.13
2022-08-08T09:21:56.297Z,94901.09
2022-08-08T09:22:35.713Z,94907.22
2022-08-08T09:25:05.516Z,94904.25
2022-08-08T09:27:56.494Z,94905.81
2022-08-08T09:30:26.701Z,94906.66
2022-08-08T09:33:54.986Z,94901.75
2022-08-08T09:35:49.379Z,94903.75
2022-08-08T09:38:32.633Z,94900.84
2022-08-08T09:41:06.395Z,94904.84
2022-08-08T09:44:06.217Z,94898.94
2022-08-08T09:46:34.701Z,94893.69
2022-08-08T09:49:18.475Z,94902.06
2022-08-08T09:52:06.318Z,94897.56
2022-08-08T09:54:42.195Z,94892.00
2022-08-08T09:57:17.111Z,94898.28
2022-08-08T10:00:02.390Z,94893.13
2022-08-08T10:02:45.808Z,94894.75
2022-08-08T10:05:25.102Z,94894.47
2022-08-08T10:07:52.224Z,94893.00
2022-08-08T10:10:36.632Z,94892.34
2022-08-08T10:13:30.003Z,94881.75
2022-08-08T10:16:03.450Z,94877.25
2022-08-08T10:18:36.325Z,94880.44
2022-08-08T10:21:23.170Z,94883.16
2022-08-08T10:24:02.793Z,94882.13
2022-08-08T10:26:57.335Z,94873.78
2022-08-08T10:29:56.864Z,94893.03
2022-08-08T10:32:48.719Z,94882.06
2022-08-08T10:35:20.563Z,94884.94
2022-08-08T10:38:08.529Z,94888.03
2022-08-08T10:40:38.349Z,94889.63
2022-08-08T10:43:06.488Z,94891.66
2022-08-08T10:45:56.571Z,94887.19
2022-08-08T10:48:57.714Z,94885.22
2022-08-08T10:51:31.626Z,94885.22
2022-08-08T10:54:07.743Z,94876.91
2022-08-08T10:56:36.804Z,94880.75
2022-08-08T10:59:10.346Z,94869.75
2022-08-08T11:01:49.452Z,94884.28
2022-08-08T11:04:38.445Z,94873.66
2022-08-08T11:07:05.453Z,94879.41
2022-08-08T11:09:34.442Z,94879.50
2022-08-08T11:12:13.533Z,94867.63
2022-08-08T11:15:00.679Z,94861.91
2022-08-08T11:17:59.876Z,94866.50
2022-08-08T11:20:27.894Z,94869.56
2022-08-08T11:23:00.756Z,94862.69
2022-08-08T11:25:53.057Z,94863.47
2022-08-08T11:28:26.069Z,94860.06
2022-08-08T11:30:59.708Z,94855.84
2022-08-08T11:33:51.780Z,94852.78
2022-08-08T11:36:15.657Z,94858.91
2022-08-08T11:38:54.194Z,94863.50
2022-08-08T11:41:24.753Z,94855.44
2022-08-08T11:43:54.011Z,94859.63
2022-08-08T11:46:26.450Z,94860.00
2022-08-08T11:48:55.375Z,94862.69
2022-08-08T11:51:30.326Z,94861.91
2022-08-08T11:54:09.908Z,94858.78
2022-08-08T11:56:57.809Z,94857.25
2022-08-08T12:00:01.827Z,94857.94
2022-08-08T12:02:33.132Z,94848.75
2022-08-08T12:05:12.513Z,94854.03
2022-08-08T12:07:53.497Z,94842.56
2022-08-08T12:10:26.057Z,94836.06
2022-08-08T12:13:15.040Z,94840.09
2022-08-08T12:15:51.430Z,94833.16
2022-08-08T12:18:25.258Z,94837.75
2022-08-08T12:20:58.638Z,94830.00
2022-08-08T12:23:43.399Z,94834.06
2022-08-08T12:26:27.942Z,94827.50
2022-08-08T12:29:19.787Z,94837.03
2022-08-08T12:31:59.987Z,94841.09
2022-08-08T12:34:56.414Z,94826.63
2022-08-08T12:37:40.747Z,94827.00
2022-08-08T12:40:22.371Z,94823.50
2022-08-08T12:42:50.300Z,94826.41
2022-08-08T12:45:58.073Z,94827.75
2022-08-08T12:48:36.461Z,94824.53
2022-08-08T12:51:10.884Z,94825.56
2022-08-08T12:53:59.158Z,94823.59
2022-08-08T12:56:39.919Z,94818.72
2022-08-08T12:59:44.510Z,94819.06
2022-08-08T13:02:23.522Z,94823.28
2022-08-08T13:04:58.036Z,94815.00
2022-08-08T13:08:04.070Z,94812.47
2022-08-08T13:10:33.632Z,94818.94
2022-08-08T13:13:05.610Z,94823.66
2022-08-08T13:15:32.848Z,94827.84
2022-08-08T13:18:11.224Z,94830.84
2022-08-08T13:20:48.900Z,94814.28
2022-08-08T13:23:30.247Z,94813.06
2022-08-08T13:26:04.249Z,94812.56
2022-08-08T13:28:41.380Z,94813.19
2022-08-08T13:31:12.426Z,94809.53
2022-08-08T13:33:47.364Z,94808.31
2022-08-08T13:36:17.166Z,94799.81
2022-08-08T13:38:45.014Z,94802.06
2022-08-08T13:41:16.517Z,94801.66
2022-08-08T13:43:47.669Z,94796.16
2022-08-08T13:46:26.361Z,94796.16
2022-08-08T13:50:32.354Z,94791.28
2022-08-08T13:51:59.644Z,94791.22
2022-08-08T13:54:31.655Z,94783.97
2022-08-08T13:57:11.325Z,94784.34
2022-08-08T13:59:48.002Z,94778.75
2022-08-08T14:02:21.356Z,94776.59
2022-08-08T14:05:20.058Z,94780.06
2022-08-08T14:07:52.366Z,94785.47
2022-08-08T14:10:33.119Z,94772.38
2022-08-08T14:13:20.750Z,94776.19
2022-08-08T14:16:04.438Z,94772.56
2022-08-08T14:18:35.510Z,94770.56
2022-08-08T14:21:08.146Z,94774.78
2022-08-08T14:24:04.639Z,94772.31
2022-08-08T14:26:30.764Z,94773.19
2022-08-08T14:29:00.174Z,94766.78
2022-08-08T14:32:06.181Z,94772.56
2022-08-08T14:34:19.451Z,94774.78
2022-08-08T14:36:51.785Z,94772.84
2022-08-08T14:39:24.931Z,94773.16
2022-08-08T14:42:03.205Z,94752.91
2022-08-08T14:44:33.661Z,94763.00
2022-08-08T14:47:02.642Z,94756.84
2022-08-08T14:50:06.809Z,94759.84
2022-08-08T14:52:58.363Z,94748.47
2022-08-08T14:55:41.476Z,94756.84
2022-08-08T14:58:16.113Z,94756.38
2022-08-08T15:00:47.886Z,94754.38
2022-08-08T15:03:17.045Z,94752.53
2022-08-08T15:05:53.207Z,94752.06
2022-08-08T15:08:34.225Z,94756.47
2022-08-08T15:11:11.166Z,94757.53
2022-08-08T15:14:01.345Z,94757.97
2022-08-08T15:16:29.211Z,94757.69
2022-08-08T15:19:01.557Z,94758.16
2022-08-08T15:21:30.295Z,94753.78
2022-08-08T15:23:57.487Z,94757.69
2022-08-08T15:26:25.419Z,94758.28
2022-08-08T15:28:54.102Z,94740.66
2022-08-08T15:31:26.050Z,94753.66
2022-08-08T15:34:18.792Z,94757.22
2022-08-08T15:36:56.923Z,94758.47
2022-08-08T15:39:23.531Z,94753.06
2022-08-08T15:41:52.588Z,94750.56
2022-08-08T15:44:21.047Z,94755.38
2022-08-08T15:46:50.944Z,94753.28
2022-08-08T15:49:20.557Z,94758.88
2022-08-08T15:51:50.018Z,94752.50
2022-08-08T15:54:37.201Z,94758.06
2022-08-08T15:57:07.604Z,94752.84
2022-08-08T16:00:05.721Z,94751.63
2022-08-08T16:02:31.490Z,94752.91
2022-08-08T16:05:00.596Z,94751.19
2022-08-08T16:07:39.142Z,94738.34
2022-08-08T16:13:07.865Z,94746.28
2022-08-08T16:13:27.567Z,94749.75
2022-08-08T16:15:58.544Z,94749.03
2022-08-08T16:18:33.078Z,94751.72
2022-08-08T16:21:01.018Z,94746.06
2022-08-08T16:23:32.108Z,94746.06
2022-08-08T16:26:12.604Z,94749.63
2022-08-08T16:28:44.426Z,94747.97
2022-08-08T16:31:12.399Z,94746.22
2022-08-08T16:33:40.046Z,94753.13
2022-08-08T16:36:09.843Z,94760.75
2022-08-08T16:38:47.355Z,94751.00
2022-08-08T16:41:22.721Z,94746.13
2022-08-08T16:43:50.850Z,94752.97
2022-08-08T16:46:36.476Z,94753.88
2022-08-08T16:49:08.078Z,94753.63
2022-08-08T16:55:01.177Z,94748.66
2022-08-08T16:55:20.745Z,94756.34
2022-08-08T16:57:43.556Z,94757.56
2022-08-08T17:00:01.245Z,94751.59
2022-08-08T17:02:39.351Z,94759.44
2022-08-08T17:05:08.332Z,94759.31
2022-08-08T17:07:37.870Z,94764.09
2022-08-08T17:10:11.512Z,94761.88
2022-08-08T17:12:38.843Z,94758.81
2022-08-08T17:15:20.614Z,94764.81
2022-08-08T17:18:03.209Z,94762.63
2022-08-08T17:20:40.066Z,94766.66
2022-08-08T17:23:17.693Z,94763.91
2022-08-08T17:25:54.973Z,94763.50
2022-08-08T17:28:31.534Z,94762.28
2022-08-08T17:31:15.097Z,94774.13
2022-08-08T17:34:54.038Z,94773.31
2022-08-08T17:37:00.251Z,94770.72
2022-08-08T17:40:03.914Z,94775.53
2022-08-08T17:42:17.908Z,94787.75
2022-08-08T17:44:46.163Z,94780.53
2022-08-08T17:47:16.330Z,94791.44
2022-08-08T17:49:52.423Z,94785.88
2022-08-08T17:52:23.114Z,94781.13
2022-08-08T17:54:51.928Z,94776.50
2022-08-08T17:57:22.859Z,94784.53
2022-08-08T17:59:49.465Z,94780.59
2022-08-08T18:02:28.743Z,94781.25
2022-08-08T18:04:58.544Z,94787.13
2022-08-08T18:08:01.728Z,94788.84
2022-08-08T18:10:15.430Z,94787.97
2022-08-08T18:12:42.734Z,94793.63
2022-08-08T18:15:10.154Z,94797.06
2022-08-08T18:18:27.238Z,94799.22
2022-08-08T18:20:42.940Z,94803.47
2022-08-08T18:23:14.700Z,94806.41
2022-08-08T18:25:41.923Z,94803.78
2022-08-08T18:28:13.319Z,94808.38
2022-08-08T18:30:41.626Z,94803.00
2022-08-08T18:33:36.255Z,94804.06
2022-08-08T18:36:02.708Z,94815.47
2022-08-08T18:38:34.281Z,94820.34
2022-08-08T18:41:02.906Z,94827.47
2022-08-08T18:43:38.147Z,94815.53
2022-08-08T18:46:56.929Z,94822.63
2022-08-08T18:48:57.126Z,94832.06
2022-08-08T18:51:48.602Z,94828.09
2022-08-08T18:54:22.076Z,94838.31
2022-08-08T18:56:51.353Z,94845.44
2022-08-08T18:59:18.045Z,94851.47
2022-08-08T19:02:25.186Z,94846.03
2022-08-08T19:04:31.857Z,94852.78
2022-08-08T19:07:02.593Z,94858.00
2022-08-08T19:09:49.085Z,94856.34
2022-08-08T19:12:17.146Z,94861.16
2022-08-08T19:14:44.111Z,94856.84
2022-08-08T19:17:11.201Z,94862.47
2022-08-08T19:19:44.273Z,94863.06
2022-08-08T19:22:26.678Z,94867.09
2022-08-08T19:26:00.045Z,94873.84
2022-08-08T19:27:57.218Z,94872.28
2022-08-08T19:30:27.526Z,94873.72
2022-08-08T19:32:58.065Z,94881.63
2022-08-08T19:35:45.064Z,94873.97
2022-08-08T19:38:16.425Z,94876.56
2022-08-08T19:40:43.208Z,94885.63
2022-08-08T19:43:11.624Z,94889.38
2022-08-08T19:45:58.976Z,94883.53
2022-08-08T19:48:28.823Z,94883.84
2022-08-08T19:50:59.398Z,94890.53
2022-08-08T19:53:51.849Z,94888.97
2022-08-08T19:56:16.513Z,94890.78
2022-08-08T19:58:52.852Z,94898.34
2022-08-08T20:01:31.530Z,94899.06
2022-08-08T20:04:02.351Z,94898.66
2022-08-08T20:06:30.022Z,94903.53
2022-08-08T20:08:56.954Z,94905.03
2022-08-08T20:11:24.451Z,94905.31
2022-08-08T20:14:32.120Z,94906.03
2022-08-08T20:16:40.842Z,94900.22
2022-08-08T20:19:08.945Z,94901.22
2022-08-08T20:21:37.827Z,94904.19
2022-08-08T20:24:06.235Z,94905.53
2022-08-08T20:26:38.096Z,94898.53
2022-08-08T20:29:06.852Z,94900.94
2022-08-08T20:32:08.226Z,94896.09
2022-08-08T20:34:29.764Z,94913.84
2022-08-08T20:37:03.297Z,94913.63
2022-08-08T20:39:39.768Z,94918.34
2022-08-08T20:42:28.557Z,94913.19
2022-08-08T20:44:57.046Z,94924.50
2022-08-08T20:47:24.034Z,94920.56
2022-08-08T20:49:54.607Z,94917.72
2022-08-08T20:52:25.782Z,94916.69
2022-08-08T20:54:52.418Z,94917.31
2022-08-08T20:57:20.906Z,94913.75
2022-08-08T20:59:48.480Z,94917.41
2022-08-08T21:02:25.787Z,94915.03
2022-08-08T21:04:57.448Z,94912.72
2022-08-08T21:07:31.208Z,94909.22
2022-08-08T21:10:15.003Z,94916.34
2022-08-08T21:12:45.932Z,94917.44
2022-08-08T21:15:16.487Z,94910.84
2022-08-08T21:18:00.203Z,94915.38
2022-08-08T21:20:34.237Z,94911.50
2022-08-08T21:23:04.397Z,94912.97
2022-08-08T21:25:36.507Z,94913.66
2022-08-08T21:28:09.646Z,94914.53
2022-08-08T21:30:45.238Z,94918.72
2022-08-08T21:33:16.560Z,94925.34
2022-08-08T21:36:16.915Z,94915.25
2022-08-08T21:38:30.033Z,94919.50
2022-08-08T21:40:58.109Z,94911.53
2022-08-08T21:43:32.912Z,94909.69
2022-08-08T21:48:07.162Z,94919.34
2022-08-08T21:48:53.433Z,94922.56
2022-08-08T21:54:23.379Z,94898.63
2022-08-08T21:54:34.185Z,94921.06
2022-08-08T21:57:01.613Z,94922.72
2022-08-08T22:00:01.566Z,94915.13
2022-08-08T22:02:19.536Z,94925.50
2022-08-08T22:04:50.019Z,94914.25
2022-08-08T22:07:18.143Z,94918.69
2022-08-08T22:09:45.701Z,94921.16
2022-08-08T22:12:15.093Z,94917.06
2022-08-08T22:14:44.620Z,94920.25
2022-08-08T22:17:17.310Z,94922.03
2022-08-08T22:20:13.006Z,94921.47
2022-08-08T22:22:36.115Z,94920.81
2022-08-08T22:25:19.902Z,94932.81
2022-08-08T22:28:03.600Z,94925.84
2022-08-08T22:30:33.758Z,94933.44
2022-08-08T22:33:01.623Z,94923.03
2022-08-08T22:36:03.605Z,94931.97
2022-08-08T22:38:17.433Z,94921.81
2022-08-08T22:40:44.876Z,94930.72
2022-08-08T22:43:11.624Z,94935.13
2022-08-08T22:45:38.985Z,94934.22
2022-08-08T22:48:06.325Z,94933.06
2022-08-08T22:50:33.499Z,94922.88
2022-08-08T22:54:31.786Z,94926.88
2022-08-08T22:55:59.751Z,94923.91
2022-08-08T22:58:34.148Z,94922.06
2022-08-08T23:02:01.013Z,94925.50
2022-08-08T23:03:55.489Z,94920.97
2022-08-08T23:06:24.104Z,94918.97
2022-08-08T23:08:55.987Z,94913.41
2022-08-08T23:12:29.067Z,94922.19
2022-08-08T23:14:21.134Z,94921.94
2022-08-08T23:16:54.462Z,94922.78
2022-08-08T23:19:32.240Z,94924.53
2022-08-08T23:22:04.387Z,94932.97
2022-08-08T23:24:36.264Z,94924.28
2022-08-08T23:27:04.372Z,94920.06
2022-08-08T23:29:31.377Z,94919.00
2022-08-08T23:31:58.435Z,94914.78
2022-08-08T23:34:25.286Z,94916.22
2022-08-08T23:36:57.983Z,94910.81
2022-08-08T23:39:26.522Z,94906.50
2022-08-08T23:42:00.818Z,94915.84
2022-08-08T23:44:28.725Z,94915.84
2022-08-08T23:49:01.628Z,94916.47
2022-08-08T23:49:42.020Z,94916.09
2022-08-08T23:52:11.973Z,94915.81
2022-08-08T23:55:00.162Z,94921.16
2022-08-08T23:57:39.068Z,94918.22
